Airfield :
LOGIN :

Register | Disclaimer

   EN    FR    IT 

 










Legend :    VFR   Marginal VFR   IFR   Intensive IFR   Very Intensive IFR
Visi :
Ceiling :
>= 8 km
>= 3000ft
5 to 8 km
1000 to 3000 ft
1500m to 5 km
500 to 1000 ft
800 to 1500m
200 to 500 ft
< 800m
< 200 ft
Symbols :   Thunderstorms  Fog  Heavy snow  Heavy precipitations  Wind > 20 kt
SIGMETs :     Misc.  Thunderstorms  Icing  Turbulence  Mountain Waves  Volcanic Ashes






- Airport Elevation : 287 ft


LFRL - Lanveoc Poulmic

CURRENT METAR :
  • 040530Z AUTO 34005KT CAVOK 12/11 Q1024 TEMPO 3000 BR

EXPIRED METARs :
  • 040500Z AUTO 34007KT CAVOK 12/11 Q1024
  • 040430Z AUTO 34005KT CAVOK 11/10 Q1024
  • 040330Z AUTO 35006KT CAVOK 11/10 Q1024
  • 040300Z AUTO 35006KT CAVOK 11/11 Q1024

TAF TAF LFRL
Valid from the 04 at 06:00 until the 05 at 06:00 UTC


040500Z 0406/0506 35007KT 9999 BKN025
PROB30
TEMPO 0406/0408 3000 BR
TEMPO 0423/0506 3000 BR SCT005
TEMPO 0500/0505 BKN014
PROB40 0503/0506 0500 FG VV///



MET'MAP, your aeronautical weather chart ! - Copyright ORBIFLY December 2007 - Disclaimer

ORBIFLY MET'MAP TEAM :

Programming & Development : Alexandra Zaïnal
Original concept : Baudouin d'Aumeries
Technical & hardware support : Manuel Goepfert
Assistance : Marc-Olivier Méhu




SOURCES & CREDITS :

   NOAA